EZY21TA LEPA-EGGD
Flight info
| Callsign | EZY21TA |
|---|---|
| Flight time | 2h 10m |
| Altitude | 36000 |
| Route | DRAGO N863 GIROM DCT AGN DCT SECHE DCT UVELI DCT CNA DCT MANAK/N0444F340 DCT MUREL DCT NOZHU/N0442F370 DCT SHIRI DCT TOJAQ |
| Aircraft | A320/M-SDE3FGHIRWY/LB1 |
Departure
| Time | 2026-04-30 19:46 |
|---|---|
| Airport | Palma de Mallorca Airport (LEPA) |
Arrival
| Time | 2026-04-30 21:56 |
|---|---|
| Airport | Bristol Airport (EGGD) |
| Time | Latitude | Longitude | Altitude | Speed | Heading |
|---|---|---|---|---|---|
| 2026-04-30 18:57 | 39.55121 | 2.72971 | 34 ft | 0 kts | 164° |
| 2026-04-30 19:08 | 39.55122 | 2.72971 | 34 ft | 0 kts | 164° |
| 2026-04-30 19:33 | 39.55123 | 2.72970 | 33 ft | 2 kts | 164° |
| 2026-04-30 19:33 | 39.55139 | 2.72963 | 30 ft | 2 kts | 161° |
| 2026-04-30 19:34 | 39.55154 | 2.72956 | 30 ft | 2 kts | 153° |
| 2026-04-30 19:34 | 39.55169 | 2.72947 | 29 ft | 2 kts | 144° |
| 2026-04-30 19:34 | 39.55190 | 2.72916 | 30 ft | 2 kts | 77° |
| 2026-04-30 19:35 | 39.55187 | 2.72901 | 31 ft | 1 kts | 57° |
| 2026-04-30 19:38 | 39.55192 | 2.72912 | 31 ft | 8 kts | 60° |
| 2026-04-30 19:38 | 39.55234 | 2.73002 | 31 ft | 14 kts | 59° |
| 2026-04-30 19:38 | 39.55288 | 2.73118 | 31 ft | 16 kts | 59° |
| 2026-04-30 19:38 | 39.55349 | 2.73248 | 31 ft | 17 kts | 58° |
| 2026-04-30 19:39 | 39.55416 | 2.73386 | 31 ft | 19 kts | 57° |
| 2026-04-30 19:39 | 39.55462 | 2.73484 | 31 ft | 11 kts | 58° |
| 2026-04-30 19:39 | 39.55498 | 2.73566 | 31 ft | 10 kts | 68° |
| 2026-04-30 19:39 | 39.55466 | 2.73619 | 32 ft | 7 kts | 151° |
| 2026-04-30 19:40 | 39.55390 | 2.73679 | 35 ft | 15 kts | 148° |
| 2026-04-30 19:40 | 39.55296 | 2.73753 | 36 ft | 17 kts | 148° |
| 2026-04-30 19:40 | 39.55187 | 2.73841 | 36 ft | 19 kts | 148° |
| 2026-04-30 19:40 | 39.55069 | 2.73935 | 36 ft | 21 kts | 148° |
| 2026-04-30 19:41 | 39.54996 | 2.73993 | 36 ft | 6 kts | 148° |
| 2026-04-30 19:41 | 39.54933 | 2.74042 | 36 ft | 18 kts | 149° |
| 2026-04-30 19:41 | 39.54827 | 2.74122 | 36 ft | 16 kts | 161° |
| 2026-04-30 19:41 | 39.54747 | 2.74046 | 36 ft | 16 kts | 239° |
| 2026-04-30 19:42 | 39.54684 | 2.73909 | 35 ft | 19 kts | 239° |
| 2026-04-30 19:42 | 39.54621 | 2.73769 | 36 ft | 17 kts | 240° |
| 2026-04-30 19:42 | 39.54563 | 2.73644 | 36 ft | 15 kts | 238° |
| 2026-04-30 19:42 | 39.54499 | 2.73514 | 36 ft | 17 kts | 238° |
| 2026-04-30 19:43 | 39.54454 | 2.73418 | 34 ft | 13 kts | 239° |
| 2026-04-30 19:43 | 39.54411 | 2.73321 | 36 ft | 12 kts | 239° |
| 2026-04-30 19:43 | 39.54379 | 2.73254 | 36 ft | 7 kts | 238° |
| 2026-04-30 19:44 | 39.54275 | 2.73042 | 36 ft | 9 kts | 239° |
| 2026-04-30 19:44 | 39.54240 | 2.72966 | 34 ft | 11 kts | 239° |
| 2026-04-30 19:44 | 39.54196 | 2.72899 | 36 ft | 9 kts | 198° |
| 2026-04-30 19:44 | 39.54143 | 2.72923 | 36 ft | 8 kts | 137° |
| 2026-04-30 19:45 | 39.54116 | 2.72996 | 35 ft | 11 kts | 102° |
| 2026-04-30 19:45 | 39.54107 | 2.73098 | 36 ft | 13 kts | 90° |
| 2026-04-30 19:45 | 39.54141 | 2.73207 | 36 ft | 16 kts | 59° |
| 2026-04-30 19:45 | 39.54291 | 2.73524 | 34 ft | 75 kts | 58° |
| 2026-04-30 19:46 | 39.54669 | 2.74319 | 40 ft | 130 kts | 59° |
| 2026-04-30 19:46 | 39.55184 | 2.75447 | 319 ft | 150 kts | 60° |
| 2026-04-30 19:46 | 39.55729 | 2.76648 | 890 ft | 157 kts | 59° |
| 2026-04-30 19:46 | 39.56314 | 2.77926 | 1270 ft | 177 kts | 59° |
| 2026-04-30 19:47 | 39.56992 | 2.79368 | 1616 ft | 196 kts | 58° |
| 2026-04-30 19:47 | 39.57497 | 2.80374 | 1870 ft | 207 kts | 57° |
| 2026-04-30 19:47 | 39.58556 | 2.82565 | 2804 ft | 213 kts | 60° |
| 2026-04-30 19:47 | 39.59290 | 2.84248 | 3559 ft | 218 kts | 60° |
| 2026-04-30 19:48 | 39.60043 | 2.85985 | 4230 ft | 225 kts | 59° |
| 2026-04-30 19:48 | 39.60815 | 2.87710 | 4961 ft | 227 kts | 58° |
| 2026-04-30 19:48 | 39.61660 | 2.89479 | 5619 ft | 233 kts | 49° |
| 2026-04-30 19:48 | 39.62942 | 2.90720 | 6291 ft | 234 kts | 17° |
| 2026-04-30 19:49 | 39.64543 | 2.90839 | 6923 ft | 233 kts | 343° |
| 2026-04-30 19:49 | 39.66761 | 2.88010 | 8237 ft | 234 kts | 288° |
| 2026-04-30 19:49 | 39.67275 | 2.86035 | 8988 ft | 235 kts | 285° |
| 2026-04-30 19:50 | 39.67727 | 2.83992 | 9763 ft | 235 kts | 282° |
| 2026-04-30 19:50 | 39.68104 | 2.81933 | 10496 ft | 235 kts | 279° |
| 2026-04-30 19:50 | 39.68362 | 2.79833 | 11185 ft | 236 kts | 275° |
| 2026-04-30 19:50 | 39.68503 | 2.77716 | 11875 ft | 237 kts | 271° |
| 2026-04-30 19:51 | 39.68662 | 2.75560 | 12572 ft | 240 kts | 278° |
| 2026-04-30 19:51 | 39.69051 | 2.73396 | 12967 ft | 259 kts | 285° |
| 2026-04-30 19:51 | 39.69740 | 2.71111 | 13182 ft | 283 kts | 291° |
| 2026-04-30 19:51 | 39.70570 | 2.68673 | 13361 ft | 306 kts | 292° |
| 2026-04-30 19:52 | 39.71465 | 2.66049 | 13501 ft | 329 kts | 292° |
| 2026-04-30 19:52 | 39.72405 | 2.63286 | 13805 ft | 344 kts | 292° |
| 2026-04-30 19:52 | 39.73381 | 2.60418 | 14346 ft | 349 kts | 292° |
| 2026-04-30 19:52 | 39.74370 | 2.57514 | 14949 ft | 352 kts | 292° |
| 2026-04-30 19:53 | 39.75363 | 2.54589 | 15563 ft | 356 kts | 292° |
| 2026-04-30 19:53 | 39.76361 | 2.51643 | 16173 ft | 359 kts | 292° |
| 2026-04-30 19:53 | 39.77372 | 2.48647 | 16742 ft | 362 kts | 292° |
| 2026-04-30 19:53 | 39.78390 | 2.45629 | 17364 ft | 365 kts | 292° |
| 2026-04-30 19:54 | 39.79409 | 2.42602 | 17966 ft | 367 kts | 292° |
| 2026-04-30 19:54 | 39.80408 | 2.39622 | 18505 ft | 370 kts | 292° |
| 2026-04-30 19:54 | 39.81457 | 2.36488 | 19015 ft | 372 kts | 292° |
| 2026-04-30 19:54 | 39.82497 | 2.33386 | 19510 ft | 375 kts | 292° |
| 2026-04-30 19:55 | 39.83544 | 2.30258 | 20018 ft | 377 kts | 291° |
| 2026-04-30 19:55 | 39.84577 | 2.27106 | 20483 ft | 380 kts | 291° |
| 2026-04-30 19:55 | 39.85608 | 2.23920 | 20948 ft | 383 kts | 291° |
| 2026-04-30 19:55 | 39.86627 | 2.20753 | 21416 ft | 386 kts | 291° |
| 2026-04-30 19:56 | 39.87662 | 2.17521 | 21878 ft | 388 kts | 291° |
| 2026-04-30 19:56 | 39.88706 | 2.14261 | 22334 ft | 391 kts | 291° |
| 2026-04-30 19:56 | 39.89759 | 2.10977 | 22781 ft | 394 kts | 291° |
| 2026-04-30 19:56 | 39.90819 | 2.07671 | 23226 ft | 396 kts | 291° |
| 2026-04-30 19:57 | 39.91886 | 2.04349 | 23647 ft | 399 kts | 291° |
| 2026-04-30 19:57 | 39.92961 | 2.01005 | 23976 ft | 402 kts | 291° |
| 2026-04-30 19:57 | 39.94042 | 1.97650 | 24066 ft | 401 kts | 291° |
| 2026-04-30 19:57 | 39.95121 | 1.94299 | 24084 ft | 401 kts | 291° |
| 2026-04-30 19:58 | 39.96198 | 1.90951 | 24090 ft | 401 kts | 291° |
| 2026-04-30 19:58 | 39.97272 | 1.87593 | 24089 ft | 402 kts | 290° |
| 2026-04-30 19:58 | 39.98345 | 1.84225 | 24090 ft | 402 kts | 290° |
| 2026-04-30 19:58 | 39.99592 | 1.80955 | 24089 ft | 404 kts | 300° |
| 2026-04-30 19:59 | 40.01328 | 1.78057 | 24091 ft | 408 kts | 312° |
| 2026-04-30 19:59 | 40.03493 | 1.75668 | 24097 ft | 412 kts | 323° |
| 2026-04-30 19:59 | 40.08729 | 1.72495 | 24094 ft | 417 kts | 336° |
| 2026-04-30 20:00 | 40.11440 | 1.71117 | 24100 ft | 417 kts | 336° |
| 2026-04-30 20:00 | 40.14144 | 1.69739 | 24102 ft | 417 kts | 335° |
| 2026-04-30 20:00 | 40.16854 | 1.68351 | 24357 ft | 420 kts | 335° |
| 2026-04-30 20:00 | 40.18664 | 1.67420 | 24613 ft | 421 kts | 335° |
| 2026-04-30 20:01 | 40.24140 | 1.64591 | 25332 ft | 425 kts | 335° |
| 2026-04-30 20:01 | 40.26900 | 1.63163 | 25692 ft | 427 kts | 335° |
| 2026-04-30 20:01 | 40.29679 | 1.61731 | 26034 ft | 430 kts | 335° |
| 2026-04-30 20:02 | 40.35277 | 1.58843 | 26692 ft | 434 kts | 335° |
| 2026-04-30 20:02 | 40.38094 | 1.57390 | 27026 ft | 436 kts | 335° |
| 2026-04-30 20:03 | 40.43774 | 1.54453 | 27688 ft | 441 kts | 335° |
| 2026-04-30 20:03 | 40.46595 | 1.52987 | 28002 ft | 443 kts | 334° |
| 2026-04-30 20:03 | 40.49465 | 1.51492 | 28301 ft | 445 kts | 335° |
| 2026-04-30 20:03 | 40.52356 | 1.49986 | 28588 ft | 448 kts | 335° |
| 2026-04-30 20:04 | 40.55258 | 1.48475 | 28883 ft | 450 kts | 335° |
| 2026-04-30 20:04 | 40.58183 | 1.46953 | 29170 ft | 452 kts | 334° |
| 2026-04-30 20:04 | 40.61113 | 1.45426 | 29443 ft | 454 kts | 334° |
| 2026-04-30 20:05 | 40.67027 | 1.42339 | 29993 ft | 459 kts | 334° |
| 2026-04-30 20:05 | 40.69998 | 1.40788 | 30225 ft | 461 kts | 334° |
| 2026-04-30 20:05 | 40.75973 | 1.37662 | 30743 ft | 462 kts | 334° |
| 2026-04-30 20:06 | 40.78959 | 1.36101 | 31077 ft | 461 kts | 334° |
| 2026-04-30 20:06 | 40.81943 | 1.34541 | 31409 ft | 460 kts | 334° |
| 2026-04-30 20:06 | 40.84915 | 1.32985 | 31733 ft | 460 kts | 334° |
| 2026-04-30 20:06 | 40.87888 | 1.31428 | 32052 ft | 459 kts | 334° |
| 2026-04-30 20:07 | 40.90852 | 1.29868 | 32395 ft | 458 kts | 334° |
| 2026-04-30 20:07 | 40.93808 | 1.28309 | 32757 ft | 456 kts | 334° |
| 2026-04-30 20:07 | 40.99685 | 1.25209 | 33421 ft | 454 kts | 334° |
| 2026-04-30 20:08 | 41.02576 | 1.23678 | 33744 ft | 453 kts | 334° |
| 2026-04-30 20:08 | 41.05542 | 1.22106 | 34065 ft | 452 kts | 334° |
| 2026-04-30 20:08 | 41.08426 | 1.20576 | 34345 ft | 452 kts | 334° |
| 2026-04-30 20:08 | 41.11344 | 1.19026 | 34614 ft | 451 kts | 334° |
| 2026-04-30 20:09 | 41.14307 | 1.17651 | 34892 ft | 454 kts | 342° |
| 2026-04-30 20:09 | 41.17430 | 1.16873 | 35156 ft | 457 kts | 351° |
| 2026-04-30 20:09 | 41.23778 | 1.16231 | 35635 ft | 457 kts | 352° |
| 2026-04-30 20:10 | 41.30111 | 1.15558 | 36076 ft | 457 kts | 352° |
| 2026-04-30 20:10 | 41.33285 | 1.15215 | 36135 ft | 456 kts | 352° |
| 2026-04-30 20:11 | 41.42750 | 1.14194 | 36140 ft | 454 kts | 352° |
| 2026-04-30 20:11 | 41.49016 | 1.13545 | 36138 ft | 454 kts | 352° |
| 2026-04-30 20:12 | 41.58480 | 1.12553 | 36138 ft | 454 kts | 352° |
| 2026-04-30 20:13 | 41.64782 | 1.11883 | 36136 ft | 454 kts | 352° |
| 2026-04-30 20:13 | 41.71077 | 1.11220 | 36131 ft | 454 kts | 352° |
| 2026-04-30 20:14 | 41.77369 | 1.10547 | 36139 ft | 454 kts | 351° |
| 2026-04-30 20:14 | 41.83664 | 1.09880 | 36135 ft | 453 kts | 352° |
| 2026-04-30 20:15 | 41.89946 | 1.09216 | 36127 ft | 453 kts | 352° |
| 2026-04-30 20:15 | 41.96221 | 1.08540 | 36124 ft | 452 kts | 351° |
| 2026-04-30 20:16 | 42.02487 | 1.07862 | 36137 ft | 452 kts | 351° |
| 2026-04-30 20:16 | 42.08744 | 1.07186 | 36144 ft | 451 kts | 351° |
| 2026-04-30 20:17 | 42.14969 | 1.06519 | 36149 ft | 451 kts | 351° |
| 2026-04-30 20:17 | 42.21222 | 1.05850 | 36194 ft | 450 kts | 351° |
| 2026-04-30 20:18 | 42.27462 | 1.05169 | 36189 ft | 449 kts | 351° |
| 2026-04-30 20:18 | 42.33694 | 1.04499 | 36195 ft | 449 kts | 351° |
| 2026-04-30 20:19 | 42.39922 | 1.03836 | 36193 ft | 448 kts | 351° |
| 2026-04-30 20:19 | 42.46146 | 1.03172 | 36212 ft | 447 kts | 351° |
| 2026-04-30 20:20 | 42.52341 | 1.02488 | 36206 ft | 446 kts | 351° |
| 2026-04-30 20:20 | 42.58516 | 1.01809 | 36202 ft | 446 kts | 351° |
| 2026-04-30 20:21 | 42.64659 | 1.01136 | 36206 ft | 445 kts | 350° |
| 2026-04-30 20:21 | 42.70824 | 1.00464 | 36200 ft | 445 kts | 350° |
| 2026-04-30 20:22 | 42.76996 | 0.99782 | 36195 ft | 444 kts | 350° |
| 2026-04-30 20:22 | 42.83156 | 0.99103 | 36193 ft | 444 kts | 351° |
| 2026-04-30 20:23 | 42.89312 | 0.98426 | 36178 ft | 444 kts | 350° |
| 2026-04-30 20:23 | 42.95470 | 0.97751 | 36178 ft | 444 kts | 350° |
| 2026-04-30 20:24 | 43.01626 | 0.97073 | 36188 ft | 444 kts | 351° |
| 2026-04-30 20:24 | 43.07780 | 0.96396 | 36188 ft | 443 kts | 350° |
| 2026-04-30 20:25 | 43.16995 | 0.95367 | 36179 ft | 443 kts | 350° |
| 2026-04-30 20:26 | 43.26180 | 0.94336 | 36180 ft | 443 kts | 350° |
| 2026-04-30 20:26 | 43.35393 | 0.93305 | 36176 ft | 442 kts | 350° |
| 2026-04-30 20:27 | 43.47662 | 0.91933 | 36191 ft | 442 kts | 350° |
| 2026-04-30 20:28 | 43.59924 | 0.90551 | 36174 ft | 442 kts | 350° |
| 2026-04-30 20:30 | 43.75249 | 0.88837 | 36179 ft | 441 kts | 349° |
| 2026-04-30 20:31 | 43.93071 | 0.84562 | 36176 ft | 428 kts | 330° |
| 2026-04-30 20:32 | 44.06550 | 0.75845 | 36167 ft | 429 kts | 330° |
| 2026-04-30 20:33 | 44.14662 | 0.70594 | 36160 ft | 429 kts | 330° |
| 2026-04-30 20:34 | 44.22792 | 0.65304 | 36174 ft | 429 kts | 331° |
| 2026-04-30 20:35 | 44.30921 | 0.60003 | 36161 ft | 430 kts | 331° |
| 2026-04-30 20:35 | 44.39033 | 0.54700 | 36161 ft | 430 kts | 330° |
| 2026-04-30 20:36 | 44.44473 | 0.51139 | 36178 ft | 431 kts | 331° |
| 2026-04-30 20:37 | 44.52621 | 0.45744 | 36139 ft | 432 kts | 331° |
| 2026-04-30 20:37 | 44.58031 | 0.42137 | 36169 ft | 432 kts | 331° |
| 2026-04-30 20:38 | 44.63477 | 0.38512 | 36167 ft | 433 kts | 331° |
| 2026-04-30 20:38 | 44.68919 | 0.34887 | 36187 ft | 433 kts | 331° |
| 2026-04-30 20:39 | 44.77084 | 0.29431 | 36189 ft | 432 kts | 331° |
| 2026-04-30 20:40 | 44.85192 | 0.23988 | 36184 ft | 432 kts | 331° |
| 2026-04-30 20:40 | 44.90610 | 0.20344 | 36179 ft | 432 kts | 331° |
| 2026-04-30 20:41 | 44.98745 | 0.14855 | 36168 ft | 431 kts | 331° |
| 2026-04-30 20:41 | 45.04140 | 0.11196 | 36159 ft | 433 kts | 332° |
| 2026-04-30 20:42 | 45.09579 | 0.07510 | 36158 ft | 434 kts | 332° |
| 2026-04-30 20:43 | 45.17767 | 0.01958 | 36154 ft | 435 kts | 332° |
| 2026-04-30 20:43 | 45.23232 | -0.01764 | 36156 ft | 436 kts | 332° |
| 2026-04-30 20:44 | 45.31436 | -0.07360 | 36163 ft | 436 kts | 332° |
| 2026-04-30 20:45 | 45.42328 | -0.14841 | 36170 ft | 435 kts | 333° |
| 2026-04-30 20:45 | 45.47803 | -0.18610 | 36163 ft | 436 kts | 333° |
| 2026-04-30 20:46 | 45.58684 | -0.26119 | 36165 ft | 436 kts | 333° |
| 2026-04-30 20:47 | 45.65913 | -0.31304 | 36152 ft | 436 kts | 327° |
| 2026-04-30 20:48 | 45.73020 | -0.39130 | 36149 ft | 436 kts | 321° |
| 2026-04-30 20:48 | 45.77793 | -0.44507 | 36152 ft | 437 kts | 322° |
| 2026-04-30 20:49 | 45.82584 | -0.49893 | 36143 ft | 438 kts | 322° |
| 2026-04-30 20:50 | 45.89772 | -0.58052 | 36138 ft | 439 kts | 321° |
| 2026-04-30 20:50 | 45.94563 | -0.63510 | 36139 ft | 439 kts | 321° |
| 2026-04-30 20:51 | 45.99356 | -0.68970 | 36140 ft | 440 kts | 322° |
| 2026-04-30 20:51 | 46.06548 | -0.77190 | 36138 ft | 441 kts | 322° |
| 2026-04-30 20:52 | 46.11359 | -0.82704 | 36145 ft | 440 kts | 321° |
| 2026-04-30 20:53 | 46.18533 | -0.90962 | 36146 ft | 439 kts | 321° |
| 2026-04-30 20:53 | 46.23560 | -0.95942 | 36154 ft | 438 kts | 332° |
| 2026-04-30 20:54 | 46.31573 | -1.02223 | 36150 ft | 439 kts | 331° |
| 2026-04-30 20:55 | 46.39651 | -1.08592 | 36152 ft | 439 kts | 332° |
| 2026-04-30 20:55 | 46.44986 | -1.12805 | 36142 ft | 439 kts | 332° |
| 2026-04-30 20:56 | 46.53034 | -1.19184 | 36146 ft | 440 kts | 331° |
| 2026-04-30 20:57 | 46.61096 | -1.25609 | 36152 ft | 440 kts | 331° |
| 2026-04-30 20:57 | 46.66459 | -1.29896 | 36152 ft | 440 kts | 331° |
| 2026-04-30 20:58 | 46.74530 | -1.36349 | 36155 ft | 441 kts | 331° |
| 2026-04-30 20:58 | 46.79908 | -1.40660 | 36154 ft | 441 kts | 331° |
| 2026-04-30 20:59 | 46.87961 | -1.47136 | 36151 ft | 441 kts | 331° |
| 2026-04-30 21:00 | 46.98670 | -1.55791 | 36139 ft | 441 kts | 331° |
| 2026-04-30 21:01 | 47.06732 | -1.62329 | 36133 ft | 441 kts | 331° |
| 2026-04-30 21:02 | 47.14785 | -1.68891 | 36155 ft | 441 kts | 330° |
| 2026-04-30 21:02 | 47.20164 | -1.73286 | 36153 ft | 442 kts | 330° |
| 2026-04-30 21:03 | 47.25520 | -1.77659 | 36142 ft | 443 kts | 330° |
| 2026-04-30 21:03 | 47.30909 | -1.82075 | 36136 ft | 443 kts | 330° |
| 2026-04-30 21:04 | 47.36306 | -1.86517 | 36141 ft | 444 kts | 330° |
| 2026-04-30 21:04 | 47.44399 | -1.93192 | 36124 ft | 445 kts | 330° |
| 2026-04-30 21:05 | 47.49791 | -1.97645 | 36122 ft | 446 kts | 330° |
| 2026-04-30 21:05 | 47.55203 | -2.02133 | 36122 ft | 446 kts | 330° |
| 2026-04-30 21:06 | 47.60623 | -2.06640 | 36123 ft | 447 kts | 330° |
| 2026-04-30 21:06 | 47.66042 | -2.11157 | 36129 ft | 447 kts | 329° |
| 2026-04-30 21:07 | 47.71468 | -2.15689 | 36135 ft | 446 kts | 329° |
| 2026-04-30 21:07 | 47.76868 | -2.20223 | 36144 ft | 445 kts | 329° |
| 2026-04-30 21:08 | 47.82260 | -2.24739 | 36135 ft | 445 kts | 330° |
| 2026-04-30 21:08 | 47.87628 | -2.29247 | 36130 ft | 446 kts | 329° |
| 2026-04-30 21:09 | 47.93034 | -2.33806 | 36127 ft | 446 kts | 329° |
| 2026-04-30 21:09 | 47.98440 | -2.38370 | 36129 ft | 446 kts | 329° |
| 2026-04-30 21:10 | 48.03842 | -2.42944 | 36112 ft | 447 kts | 329° |
| 2026-04-30 21:10 | 48.09261 | -2.47548 | 36111 ft | 448 kts | 329° |
| 2026-04-30 21:11 | 48.14640 | -2.52132 | 36116 ft | 448 kts | 329° |
| 2026-04-30 21:11 | 48.20062 | -2.56755 | 36128 ft | 448 kts | 329° |
| 2026-04-30 21:12 | 48.25482 | -2.61396 | 36128 ft | 448 kts | 329° |
| 2026-04-30 21:12 | 48.30897 | -2.66043 | 36129 ft | 448 kts | 329° |
| 2026-04-30 21:13 | 48.36284 | -2.70671 | 36128 ft | 448 kts | 329° |
| 2026-04-30 21:13 | 48.41690 | -2.75325 | 36123 ft | 448 kts | 329° |
| 2026-04-30 21:14 | 48.47103 | -2.79993 | 36111 ft | 449 kts | 329° |
| 2026-04-30 21:14 | 48.52528 | -2.84695 | 36121 ft | 449 kts | 329° |
| 2026-04-30 21:15 | 48.57958 | -2.89415 | 36122 ft | 450 kts | 329° |
| 2026-04-30 21:15 | 48.63384 | -2.94141 | 36121 ft | 450 kts | 329° |
| 2026-04-30 21:16 | 48.68825 | -2.98887 | 36119 ft | 451 kts | 329° |
| 2026-04-30 21:16 | 48.74247 | -3.03631 | 36122 ft | 452 kts | 329° |
| 2026-04-30 21:17 | 48.79695 | -3.08408 | 36142 ft | 452 kts | 328° |
| 2026-04-30 21:17 | 48.85123 | -3.13187 | 36149 ft | 450 kts | 328° |
| 2026-04-30 21:18 | 48.90527 | -3.17954 | 36150 ft | 449 kts | 328° |
| 2026-04-30 21:18 | 48.95926 | -3.22733 | 36146 ft | 448 kts | 328° |
| 2026-04-30 21:19 | 49.01327 | -3.27512 | 36145 ft | 448 kts | 328° |
| 2026-04-30 21:19 | 49.06719 | -3.32286 | 36131 ft | 448 kts | 328° |
| 2026-04-30 21:20 | 49.12116 | -3.37085 | 36127 ft | 449 kts | 328° |
| 2026-04-30 21:20 | 49.17480 | -3.41877 | 36124 ft | 449 kts | 328° |
| 2026-04-30 21:21 | 49.22869 | -3.46709 | 36123 ft | 449 kts | 328° |
| 2026-04-30 21:22 | 49.30978 | -3.53978 | 36117 ft | 450 kts | 330° |
| 2026-04-30 21:23 | 49.42653 | -3.61022 | 36118 ft | 453 kts | 338° |
| 2026-04-30 21:23 | 49.51534 | -3.66115 | 36121 ft | 454 kts | 338° |
| 2026-04-30 21:24 | 49.57418 | -3.69500 | 36107 ft | 454 kts | 338° |
| 2026-04-30 21:24 | 49.63351 | -3.72921 | 36112 ft | 454 kts | 338° |
| 2026-04-30 21:25 | 49.69417 | -3.75676 | 36117 ft | 456 kts | 351° |
| 2026-04-30 21:25 | 49.72586 | -3.76025 | 36111 ft | 457 kts | 0° |
| 2026-04-30 21:26 | 49.82094 | -3.74965 | 36114 ft | 459 kts | 4° |
| 2026-04-30 21:27 | 49.91651 | -3.73841 | 36112 ft | 459 kts | 4° |
| 2026-04-30 21:27 | 49.98040 | -3.73078 | 36113 ft | 460 kts | 4° |
| 2026-04-30 21:28 | 50.07634 | -3.71938 | 36118 ft | 461 kts | 4° |
| 2026-04-30 21:28 | 50.13992 | -3.71181 | 34916 ft | 462 kts | 4° |
| 2026-04-30 21:29 | 50.17208 | -3.70798 | 34124 ft | 465 kts | 4° |
| 2026-04-30 21:29 | 50.26949 | -3.69629 | 31854 ft | 465 kts | 5° |
| 2026-04-30 21:30 | 50.32294 | -3.68986 | 30867 ft | 460 kts | 5° |
| 2026-04-30 21:31 | 50.42761 | -3.67696 | 28970 ft | 447 kts | 6° |
| 2026-04-30 21:31 | 50.47901 | -3.66809 | 28014 ft | 440 kts | 8° |
| 2026-04-30 21:32 | 50.53896 | -3.65565 | 26918 ft | 433 kts | 9° |
| 2026-04-30 21:32 | 50.56867 | -3.64933 | 26376 ft | 429 kts | 9° |
| 2026-04-30 21:32 | 50.59819 | -3.64290 | 25851 ft | 426 kts | 9° |
| 2026-04-30 21:32 | 50.62744 | -3.63660 | 25255 ft | 424 kts | 9° |
| 2026-04-30 21:33 | 50.65669 | -3.63034 | 24726 ft | 421 kts | 9° |
| 2026-04-30 21:33 | 50.71443 | -3.61808 | 23724 ft | 416 kts | 9° |
| 2026-04-30 21:33 | 50.74296 | -3.61206 | 23165 ft | 413 kts | 9° |
| 2026-04-30 21:34 | 50.77131 | -3.60610 | 22626 ft | 409 kts | 9° |
| 2026-04-30 21:34 | 50.82705 | -3.59435 | 21642 ft | 403 kts | 9° |
| 2026-04-30 21:34 | 50.85479 | -3.58856 | 21107 ft | 401 kts | 9° |
| 2026-04-30 21:35 | 50.88245 | -3.58281 | 20647 ft | 399 kts | 9° |
| 2026-04-30 21:35 | 50.90970 | -3.57650 | 20369 ft | 389 kts | 13° |
| 2026-04-30 21:35 | 50.93503 | -3.56546 | 20164 ft | 365 kts | 25° |
| 2026-04-30 21:35 | 50.95650 | -3.54665 | 19874 ft | 344 kts | 41° |
| 2026-04-30 21:36 | 50.97367 | -3.52142 | 19384 ft | 331 kts | 51° |
| 2026-04-30 21:36 | 50.98929 | -3.49476 | 18827 ft | 327 kts | 51° |
| 2026-04-30 21:37 | 51.03568 | -3.41679 | 17625 ft | 323 kts | 49° |
| 2026-04-30 21:37 | 51.05336 | -3.39471 | 17279 ft | 326 kts | 33° |
| 2026-04-30 21:37 | 51.07416 | -3.38014 | 16946 ft | 328 kts | 18° |
| 2026-04-30 21:37 | 51.09667 | -3.37399 | 16623 ft | 329 kts | 7° |
| 2026-04-30 21:38 | 51.11930 | -3.37022 | 16433 ft | 323 kts | 7° |
| 2026-04-30 21:38 | 51.14133 | -3.36640 | 16047 ft | 325 kts | 8° |
| 2026-04-30 21:38 | 51.16389 | -3.36240 | 15691 ft | 325 kts | 8° |
| 2026-04-30 21:38 | 51.18630 | -3.35752 | 15381 ft | 322 kts | 17° |
| 2026-04-30 21:39 | 51.20640 | -3.34310 | 15085 ft | 315 kts | 39° |
| 2026-04-30 21:39 | 51.22156 | -3.31889 | 14758 ft | 306 kts | 61° |
| 2026-04-30 21:39 | 51.23028 | -3.28862 | 14441 ft | 296 kts | 81° |
| 2026-04-30 21:39 | 51.23208 | -3.25642 | 14131 ft | 288 kts | 100° |
| 2026-04-30 21:40 | 51.22732 | -3.22600 | 13811 ft | 280 kts | 118° |
| 2026-04-30 21:40 | 51.21714 | -3.20042 | 13458 ft | 274 kts | 135° |
| 2026-04-30 21:40 | 51.20263 | -3.18119 | 13138 ft | 269 kts | 152° |
| 2026-04-30 21:40 | 51.18542 | -3.17025 | 12813 ft | 266 kts | 168° |
| 2026-04-30 21:41 | 51.16692 | -3.16790 | 12481 ft | 265 kts | 180° |
| 2026-04-30 21:41 | 51.14853 | -3.16972 | 12166 ft | 265 kts | 184° |
| 2026-04-30 21:41 | 51.13027 | -3.17288 | 11844 ft | 264 kts | 185° |
| 2026-04-30 21:41 | 51.11213 | -3.17644 | 11517 ft | 262 kts | 186° |
| 2026-04-30 21:42 | 51.09403 | -3.18003 | 11204 ft | 261 kts | 185° |
| 2026-04-30 21:42 | 51.07624 | -3.18348 | 10910 ft | 259 kts | 186° |
| 2026-04-30 21:42 | 51.05880 | -3.19108 | 10603 ft | 260 kts | 201° |
| 2026-04-30 21:42 | 51.04340 | -3.20625 | 10284 ft | 263 kts | 217° |
| 2026-04-30 21:43 | 51.03128 | -3.22833 | 9975 ft | 267 kts | 234° |
| 2026-04-30 21:43 | 51.02393 | -3.25495 | 9717 ft | 269 kts | 251° |
| 2026-04-30 21:43 | 51.02184 | -3.28293 | 9392 ft | 274 kts | 268° |
| 2026-04-30 21:43 | 51.02538 | -3.31247 | 9055 ft | 280 kts | 287° |
| 2026-04-30 21:44 | 51.03493 | -3.33962 | 8721 ft | 284 kts | 307° |
| 2026-04-30 21:44 | 51.04947 | -3.36050 | 8448 ft | 283 kts | 326° |
| 2026-04-30 21:44 | 51.06740 | -3.37303 | 8128 ft | 282 kts | 347° |
| 2026-04-30 21:44 | 51.08688 | -3.37598 | 7785 ft | 280 kts | 3° |
| 2026-04-30 21:45 | 51.10621 | -3.37421 | 7429 ft | 279 kts | 6° |
| 2026-04-30 21:45 | 51.12548 | -3.37186 | 7154 ft | 276 kts | 6° |
| 2026-04-30 21:45 | 51.14473 | -3.36956 | 7134 ft | 277 kts | 6° |
| 2026-04-30 21:45 | 51.16396 | -3.36727 | 7139 ft | 278 kts | 6° |
| 2026-04-30 21:46 | 51.18293 | -3.36501 | 7133 ft | 270 kts | 6° |
| 2026-04-30 21:46 | 51.20156 | -3.36278 | 7138 ft | 268 kts | 6° |
| 2026-04-30 21:46 | 51.21995 | -3.36059 | 7137 ft | 267 kts | 6° |
| 2026-04-30 21:46 | 51.23845 | -3.35840 | 6887 ft | 266 kts | 6° |
| 2026-04-30 21:47 | 51.25696 | -3.35623 | 6598 ft | 265 kts | 6° |
| 2026-04-30 21:47 | 51.27533 | -3.35411 | 6311 ft | 264 kts | 6° |
| 2026-04-30 21:47 | 51.29351 | -3.35119 | 6001 ft | 262 kts | 9° |
| 2026-04-30 21:47 | 51.31158 | -3.34739 | 5712 ft | 260 kts | 11° |
| 2026-04-30 21:48 | 51.32863 | -3.33905 | 5438 ft | 254 kts | 30° |
| 2026-04-30 21:48 | 51.34283 | -3.32324 | 5191 ft | 246 kts | 48° |
| 2026-04-30 21:48 | 51.35310 | -3.30196 | 5021 ft | 239 kts | 66° |
| 2026-04-30 21:48 | 51.35887 | -3.27744 | 5003 ft | 234 kts | 83° |
| 2026-04-30 21:49 | 51.36055 | -3.25203 | 5015 ft | 233 kts | 90° |
| 2026-04-30 21:49 | 51.36169 | -3.22612 | 5011 ft | 233 kts | 90° |
| 2026-04-30 21:49 | 51.36283 | -3.20023 | 5010 ft | 233 kts | 90° |
| 2026-04-30 21:49 | 51.36395 | -3.17473 | 5000 ft | 222 kts | 90° |
| 2026-04-30 21:50 | 51.36499 | -3.15086 | 5003 ft | 208 kts | 91° |
| 2026-04-30 21:50 | 51.36594 | -3.12846 | 5002 ft | 202 kts | 91° |
| 2026-04-30 21:50 | 51.36688 | -3.10608 | 5003 ft | 201 kts | 91° |
| 2026-04-30 21:50 | 51.36782 | -3.08372 | 4872 ft | 201 kts | 91° |
| 2026-04-30 21:51 | 51.36876 | -3.06157 | 4642 ft | 199 kts | 91° |
| 2026-04-30 21:51 | 51.36967 | -3.04013 | 4365 ft | 187 kts | 91° |
| 2026-04-30 21:51 | 51.37053 | -3.01993 | 4131 ft | 174 kts | 91° |
| 2026-04-30 21:51 | 51.37130 | -3.00145 | 3903 ft | 162 kts | 92° |
| 2026-04-30 21:52 | 51.37203 | -2.98397 | 3698 ft | 152 kts | 92° |
| 2026-04-30 21:52 | 51.37270 | -2.96782 | 3508 ft | 141 kts | 94° |
| 2026-04-30 21:52 | 51.37333 | -2.95226 | 3323 ft | 138 kts | 94° |
| 2026-04-30 21:52 | 51.37393 | -2.93753 | 3144 ft | 137 kts | 94° |
| 2026-04-30 21:53 | 51.37454 | -2.92234 | 2958 ft | 136 kts | 94° |
| 2026-04-30 21:53 | 51.37515 | -2.90731 | 2781 ft | 135 kts | 95° |
| 2026-04-30 21:53 | 51.37576 | -2.89242 | 2594 ft | 134 kts | 95° |
| 2026-04-30 21:53 | 51.37636 | -2.87760 | 2421 ft | 132 kts | 94° |
| 2026-04-30 21:54 | 51.37691 | -2.86292 | 2230 ft | 132 kts | 96° |
| 2026-04-30 21:54 | 51.37751 | -2.84826 | 2052 ft | 132 kts | 91° |
| 2026-04-30 21:54 | 51.37851 | -2.83385 | 1899 ft | 131 kts | 94° |
| 2026-04-30 21:54 | 51.37902 | -2.81927 | 1716 ft | 131 kts | 94° |
| 2026-04-30 21:55 | 51.37941 | -2.80470 | 1568 ft | 132 kts | 95° |
| 2026-04-30 21:55 | 51.37998 | -2.78994 | 1357 ft | 132 kts | 90° |
| 2026-04-30 21:55 | 51.38051 | -2.77545 | 1184 ft | 132 kts | 90° |
| 2026-04-30 21:55 | 51.38106 | -2.76080 | 1009 ft | 133 kts | 88° |
| 2026-04-30 21:56 | 51.38163 | -2.74614 | 797 ft | 132 kts | 85° |
| 2026-04-30 21:56 | 51.38220 | -2.73134 | 638 ft | 131 kts | 85° |
| 2026-04-30 21:56 | 51.38268 | -2.71883 | 628 ft | 79 kts | 86° |
| 2026-04-30 21:56 | 51.38284 | -2.71487 | 613 ft | 3 kts | 82° |
| 2026-04-30 21:57 | 51.38328 | -2.71465 | 616 ft | 8 kts | 348° |
| 2026-04-30 21:57 | 51.38371 | -2.71506 | 623 ft | 0 kts | 323° |
| 2026-04-30 21:58 | 51.38387 | -2.71523 | 622 ft | 11 kts | 330° |
| 2026-04-30 21:58 | 51.38442 | -2.71468 | 627 ft | 11 kts | 81° |
| 2026-04-30 21:59 | 51.38498 | -2.71402 | 624 ft | 11 kts | 360° |
| 2026-04-30 21:59 | 51.38522 | -2.71403 | 613 ft | 1 kts | 358° |
| 2026-04-30 21:59 | 51.38540 | -2.71405 | 613 ft | 0 kts | 357° |